ABY122 OMSJ-OBBI
Flight info
| Callsign | ABY122 |
|---|---|
| Flight time | N/A |
| Altitude | 26000 |
| Route | NABIX P699 ALKAN M556 ORDIG |
| Aircraft | A320/M-SDE3FGHIRWY/LB1 |
Departure
| Time | 2026-05-06 23:45 |
|---|---|
| Airport | Sharjah International Airport (OMSJ) |
Arrival
| Time | N/A |
|---|---|
| Airport | Bahrain International Airport (OBBI) |
| Time | Latitude | Longitude | Altitude | Speed | Heading |
|---|---|---|---|---|---|
| 2026-05-06 23:15 | 25.32320 | 55.52020 | 112 ft | 0 kts | 212° |
| 2026-05-06 23:34 | 25.32330 | 55.52027 | 112 ft | 4 kts | 212° |
| 2026-05-06 23:34 | 25.32353 | 55.52042 | 112 ft | 4 kts | 210° |
| 2026-05-06 23:34 | 25.32377 | 55.52057 | 114 ft | 4 kts | 207° |
| 2026-05-06 23:35 | 25.32401 | 55.52070 | 114 ft | 4 kts | 204° |
| 2026-05-06 23:35 | 25.32427 | 55.52081 | 113 ft | 4 kts | 193° |
| 2026-05-06 23:35 | 25.32451 | 55.52082 | 112 ft | 4 kts | 150° |
| 2026-05-06 23:35 | 25.32460 | 55.52074 | 113 ft | 1 kts | 122° |
| 2026-05-06 23:36 | 25.32460 | 55.52073 | 113 ft | 0 kts | 122° |
| 2026-05-06 23:40 | 25.32460 | 55.52075 | 115 ft | 2 kts | 122° |
| 2026-05-06 23:40 | 25.32413 | 55.52154 | 113 ft | 18 kts | 124° |
| 2026-05-06 23:40 | 25.32367 | 55.52234 | 114 ft | 11 kts | 122° |
| 2026-05-06 23:41 | 25.32326 | 55.52307 | 114 ft | 13 kts | 122° |
| 2026-05-06 23:41 | 25.32270 | 55.52405 | 113 ft | 16 kts | 123° |
| 2026-05-06 23:41 | 25.32206 | 55.52515 | 115 ft | 18 kts | 122° |
| 2026-05-06 23:41 | 25.32136 | 55.52636 | 114 ft | 20 kts | 122° |
| 2026-05-06 23:42 | 25.32064 | 55.52764 | 114 ft | 18 kts | 122° |
| 2026-05-06 23:42 | 25.31992 | 55.52888 | 114 ft | 20 kts | 122° |
| 2026-05-06 23:42 | 25.31914 | 55.53025 | 113 ft | 22 kts | 122° |
| 2026-05-06 23:42 | 25.31837 | 55.53158 | 114 ft | 15 kts | 122° |
| 2026-05-06 23:43 | 25.31791 | 55.53253 | 115 ft | 12 kts | 104° |
| 2026-05-06 23:43 | 25.31786 | 55.53340 | 115 ft | 9 kts | 76° |
| 2026-05-06 23:43 | 25.31829 | 55.53385 | 114 ft | 8 kts | 31° |
| 2026-05-06 23:43 | 25.31893 | 55.53428 | 116 ft | 10 kts | 32° |
| 2026-05-06 23:44 | 25.31956 | 55.53471 | 115 ft | 13 kts | 32° |
| 2026-05-06 23:44 | 25.32035 | 55.53523 | 119 ft | 12 kts | 28° |
| 2026-05-06 23:44 | 25.32098 | 55.53514 | 116 ft | 10 kts | 303° |
| 2026-05-06 23:44 | 25.32136 | 55.53445 | 116 ft | 18 kts | 302° |
| 2026-05-06 23:45 | 25.32348 | 55.53076 | 118 ft | 94 kts | 302° |
| 2026-05-06 23:45 | 25.32804 | 55.52283 | 116 ft | 150 kts | 302° |
| 2026-05-06 23:45 | 25.33437 | 55.51171 | 312 ft | 181 kts | 302° |
| 2026-05-06 23:45 | 25.34113 | 55.50001 | 1055 ft | 181 kts | 301° |
| 2026-05-06 23:46 | 25.34801 | 55.48844 | 1776 ft | 178 kts | 302° |
| 2026-05-06 23:46 | 25.35498 | 55.47656 | 2142 ft | 197 kts | 301° |
| 2026-05-06 23:46 | 25.36296 | 55.46249 | 2074 ft | 227 kts | 301° |
| 2026-05-06 23:46 | 25.37143 | 55.44748 | 2028 ft | 232 kts | 301° |
| 2026-05-06 23:47 | 25.37999 | 55.43234 | 2012 ft | 232 kts | 301° |
| 2026-05-06 23:47 | 25.38849 | 55.41736 | 2007 ft | 233 kts | 301° |
| 2026-05-06 23:47 | 25.39711 | 55.40217 | 2005 ft | 233 kts | 301° |
| 2026-05-06 23:47 | 25.40580 | 55.38698 | 2003 ft | 232 kts | 302° |
| 2026-05-06 23:48 | 25.41457 | 55.37198 | 2003 ft | 232 kts | 302° |
| 2026-05-06 23:48 | 25.42340 | 55.35700 | 1998 ft | 232 kts | 302° |
| 2026-05-06 23:48 | 25.43224 | 55.34203 | 1996 ft | 232 kts | 302° |
| 2026-05-06 23:48 | 25.44109 | 55.32703 | 1994 ft | 232 kts | 302° |
| 2026-05-06 23:49 | 25.44981 | 55.31222 | 1984 ft | 232 kts | 302° |
| 2026-05-06 23:49 | 25.45814 | 55.29688 | 1984 ft | 232 kts | 292° |
| 2026-05-06 23:49 | 25.46206 | 55.27957 | 1992 ft | 240 kts | 272° |
| 2026-05-06 23:49 | 25.46169 | 55.26005 | 1933 ft | 278 kts | 270° |
| 2026-05-06 23:50 | 25.46178 | 55.23665 | 1914 ft | 317 kts | 269° |
| 2026-05-06 23:50 | 25.46077 | 55.18947 | 4304 ft | 287 kts | 267° |
| 2026-05-06 23:50 | 25.46017 | 55.16797 | 5554 ft | 275 kts | 267° |
| 2026-05-06 23:51 | 25.45960 | 55.14697 | 6429 ft | 277 kts | 268° |
| 2026-05-06 23:51 | 25.45904 | 55.12539 | 7169 ft | 282 kts | 268° |
| 2026-05-06 23:51 | 25.45836 | 55.10339 | 7886 ft | 289 kts | 265° |
| 2026-05-06 23:51 | 25.45457 | 55.08128 | 8589 ft | 296 kts | 253° |
| 2026-05-06 23:52 | 25.44630 | 55.06017 | 9301 ft | 303 kts | 240° |
| 2026-05-06 23:52 | 25.43423 | 55.04073 | 9978 ft | 310 kts | 234° |
| 2026-05-06 23:52 | 25.42121 | 55.02079 | 10318 ft | 331 kts | 234° |
| 2026-05-06 23:52 | 25.40737 | 54.99946 | 10666 ft | 349 kts | 234° |
| 2026-05-06 23:53 | 25.39327 | 54.97768 | 11259 ft | 356 kts | 234° |
| 2026-05-06 23:53 | 25.37870 | 54.95521 | 11934 ft | 362 kts | 234° |
| 2026-05-06 23:53 | 25.36392 | 54.93241 | 12623 ft | 367 kts | 234° |
| 2026-05-06 23:53 | 25.34828 | 54.90975 | 13306 ft | 372 kts | 227° |
| 2026-05-06 23:54 | 25.32940 | 54.89006 | 13939 ft | 375 kts | 219° |
| 2026-05-06 23:54 | 25.30957 | 54.87118 | 14622 ft | 377 kts | 219° |
| 2026-05-06 23:54 | 25.28966 | 54.85225 | 15327 ft | 377 kts | 220° |
| 2026-05-06 23:54 | 25.26975 | 54.83331 | 16053 ft | 378 kts | 220° |
| 2026-05-06 23:55 | 25.25006 | 54.81457 | 16780 ft | 378 kts | 220° |
| 2026-05-06 23:55 | 25.23075 | 54.79482 | 17483 ft | 379 kts | 228° |
| 2026-05-06 23:55 | 25.21543 | 54.77107 | 18151 ft | 381 kts | 242° |
| 2026-05-06 23:55 | 25.20545 | 54.74397 | 18764 ft | 381 kts | 255° |
| 2026-05-06 23:56 | 25.20129 | 54.71506 | 19358 ft | 383 kts | 268° |